Terminal Aerodrome Forecast
Issued by NWS

Home | Current Version | Previous Version | Graphics & Text | Print | Product List | Glossary On
Versions: 1 2 3 4 5 6 7 8 9 10 11 12 13 14
000
FTUS43 KICT 141100
TAFRSL
TAF
KRSL 141132Z 1412/1512 35022G31KT P6SM BKN080
     FM141800 34017G25KT P6SM SCT120
     FM150100 30008KT P6SM SCT120=

USA.gov is the U.S. government's official web portal to all federal, state and local government web resources and services.